Crooked Creek Research Lab Weather observations

Data are for 10 minute period ending at time listed.
 Day   Time    Ave.   Ave.  Ave.  Vector   Max.   Stn.    Total    Solar   Ave.   Snow 
  of    of     Air    Rel.  Wind   Wind    Wind   Baro.  Precip.   Rad.    Soil   Depth
Year   Day     Temp.  Hum.  Speed  Dir.    Gust   Pres.                    Temp.       
2014   (PST)    F      %     mph   deg.    mph     mb.     in.     W/m2     F      in. 
---------------------------------------------------------------------------------------  
 245    0:00   43.1    41    0.8   226      4.4   704.8    0.00       0    999.0    -0.6
 245    0:10   43.2    42    0.4   205      1.5   704.8    0.00       0    999.0    -0.7
 245    0:20   41.9    43    0.1   189      1.1   704.8    0.00       0    999.0    -0.5
 245    0:30   41.6    44    0.2   152      1.5   704.7    0.00       0    999.0    -0.5
 245    0:40   41.8    45    0.4   148      1.6   704.7    0.00       0    999.0    -0.4
 245    0:50   42.8    42    0.2   160      1.8   704.6    0.00       0    999.0    -0.4
 245    1:00   44.4    40    0.6   157      2.2   704.7    0.00       0    999.0    -0.5
 245    1:10   45.2    39    0.9   175      2.3   704.7    0.00       0    999.0    -0.5
 245    1:20   45.7    38    0.6   169      2.8   704.7    0.00       0    999.0    -0.7
 245    1:30   44.7    39    0.4   218      3.4   704.7    0.00       0    999.0    -0.6
 245    1:40   43.8    40    0.5   233      2.6   704.7    0.00       0    999.0    -0.6
 245    1:50   43.3    40    0.5   244      2.9   704.5    0.00       0    999.0    -0.5
 245    2:00   43.0    41    0.6   231      2.9   704.5    0.00       0    999.0    -0.5
 245    2:10   42.5    41    0.7   230      4.2   704.6    0.00       0    999.0    -0.5
 245    2:20   42.6    41    0.6   224      4.6   704.5    0.00       0    999.0    -0.6
 245    2:30   42.3    42    0.0     0      0.0   704.6    0.00       0    999.0    -0.6
 245    2:40   41.8    43    0.3   214      2.3   704.5    0.00       0    999.0    -0.5
 245    2:50   41.2    44    0.1   199      0.9   704.4    0.00       0    999.0    -0.6
 245    3:00   40.7    45    0.6   138      2.6   704.5    0.00       0    999.0    -0.5
 245    3:10   40.6    45    0.0   207      1.0   704.4    0.00       0    999.0    -0.4
 245    3:20   41.5    44    0.7   150      2.5   704.4    0.00       0    999.0    -0.5
 245    3:30   41.3    44    0.3   239      2.0   704.5    0.00       0    999.0    -0.5
 245    3:40   40.4    45    0.7   238      3.4   704.5    0.00       0    999.0    -0.7
 245    3:50   39.1    48    0.7   229      4.0   704.5    0.00       0    999.0    -0.5
 245    4:00   39.1    48    0.2   232      2.9   704.5    0.00       0    999.0    -0.5
 245    4:10   39.4    48    2.0   186      5.2   704.5    0.00       0    999.0    -0.6
 245    4:20   40.4    46    2.3   159      4.1   704.5    0.00       0    999.0    -0.5
 245    4:30   43.7    40    3.8   150      6.6   704.4    0.00       0    999.0    -0.5
 245    4:40   45.2    38    2.7   136      5.8   704.5    0.00       0    999.0    -0.7
 245    4:50   44.7    39    2.9   146      5.4   704.5    0.00       0    999.0    -0.5
 245    5:00   44.4    40    2.2   132      4.0   704.5    0.00       1    999.0    -0.7
 245    5:10   43.6    41    2.0   135      3.6   704.8    0.00       2    999.0    -0.7
 245    5:20   42.8    43    1.4   133      3.0   704.8    0.00       5    999.0    -0.5
 245    5:30   42.8    43    1.1   224      4.5   704.7    0.00       7    999.0    -0.6
 245    5:40   41.8    45    1.6   236      3.9   704.8    0.00       9    999.0    -0.5
 245    5:50   42.1    44    0.8   234      3.9   704.8    0.00      11    999.0    -0.5
 245    6:00   42.4    45    0.7   176      1.7   705.0    0.00      13    999.0    -0.7
 245    6:10   42.2    45    0.6   213      2.6   704.9    0.00      14    999.0    -0.5
 245    6:20   43.1    45    0.4   195      2.3   704.9    0.00      15    999.0    -0.4
 245    6:30   46.6    40    1.6   164      3.1   705.0    0.00      16    999.0    -0.5
 245    6:40   48.6    37    2.6   126      4.2   705.0    0.00      18    999.0    -0.6
 245    6:50   51.4    33    1.4   158      4.3   705.0    0.00     161    999.0    -0.6
 245    7:00   57.0    28    1.2   193      4.1   705.0    0.00     330    999.0    -0.6
 245    7:10   59.4    25    2.0   124      6.2   705.2    0.00     363    999.0    -0.8
 245    7:20   59.6    25    2.5   116      6.7   705.3    0.00     397    999.0    -0.6
 245    7:30   61.4    24    1.5   139      4.9   705.4    0.00     429    999.0    -0.7
 245    7:40   61.4    23    2.5   137      6.0   705.5    0.00     461    999.0    -0.7
 245    7:50   61.5    25    2.1   195      5.8   705.5    0.00     493    999.0    -0.7
 245    8:00   62.4    25    1.6   235      4.3   705.6    0.00     523    999.0    -0.6
 245    8:10   61.6    26    4.6   126      9.7   705.6    0.00     552    999.0    -0.6
 245    8:20   61.3    26    4.8   129      9.2   705.7    0.00     581    999.0    -0.5
 245    8:30   61.1    26    5.1   138     10.4   705.7    0.00     609    999.0    -0.5
 245    8:40   61.5    26    5.6   126     13.2   705.7    0.00     636    999.0    -0.5
 245    8:50   61.5    26    6.5   128     13.2   705.7    0.00     662    999.0    -0.5
 245    9:00   62.2    26    6.0   129     11.1   705.8    0.00     687    999.0    -0.6
 245    9:10   62.6    25    6.1   130     12.0   705.6    0.00     711    999.0    -0.6
 245    9:20   62.5    25    6.3   127     13.7   705.8    0.00     733    999.0    -0.5
 245    9:30   63.1    25    5.4   139     13.8   705.9    0.00     754    999.0    -0.6
 245    9:40   63.4    24    6.3   134     13.4   705.9    0.00     774    999.0    -0.5
 245    9:50   64.0    24    4.1   126     11.3   705.9    0.00     791    999.0    -0.6
 245   10:00   64.3    24    4.7   149     10.3   705.9    0.00     807    999.0    -0.6
 245   10:10   64.4    24    4.5   152     11.0   705.9    0.00     822    999.0    -0.6
 245   10:20   65.0    22    3.9   171      9.3   705.8    0.00     837    999.0    -0.7
 245   10:30   65.4    23    4.6   131     12.1   705.9    0.00     848    999.0    -0.5
 245   10:40   66.1    23    5.0   143     10.4   705.9    0.00     857    999.0    -0.4
 245   10:50   65.6    22    4.7   200     12.4   705.8    0.00     866    999.0    -0.6
 245   11:00   66.4    21    5.3   198     11.9   705.8    0.00     875    999.0    -0.5
 245   11:10   67.2    21    4.6   176     10.2   705.8    0.00     880    999.0    -0.6
 245   11:20   66.7    22    4.7   159     10.0   705.8    0.00     883    999.0    -0.7
 245   11:30   66.1    22    5.9   138     12.4   705.7    0.00     885    999.0    -0.4
 245   11:40   66.2    22    5.5   146     10.4   705.8    0.00     883    999.0    -0.5
 245   11:50   66.7    22    4.3   124     11.5   705.6    0.00     884    999.0    -0.6
 245   12:00   66.8    22    5.9   151     14.1   705.6    0.00     880    999.0    -0.6
 245   12:10   66.7    22    5.2   148     11.8   705.6    0.00     877    999.0    -0.5
 245   12:20   66.9    21    4.5   165     11.2   705.6    0.00     872    999.0    -0.5
 245   12:30   67.2    21    4.5   127     11.9   705.8    0.00     867    999.0    -0.6
 245   12:40   68.0    21    3.5   124      8.3   705.8    0.00     858    999.0    -0.5
 245   12:50   67.5    21    4.3    98      9.1   705.6    0.00     850    999.0    -0.6
 245   13:00   68.0    22    2.7   236      6.2   705.6    0.00     841    999.0    -0.5
 245   13:10   67.4    22    7.2    22     15.4   705.6    0.00     822    999.0    -0.7
 245   13:20   67.7    22    5.7    16     12.5   705.5    0.00     803    999.0    -0.5
 245   13:30   68.2    22    4.9    21     13.7   705.5    0.00     789    999.0    -0.6
 245   13:40   66.9    23    5.7   352     14.3   705.5    0.00     767    999.0    -0.6
 245   13:50   67.2    22    5.1   360     10.5   705.4    0.00     747    999.0    -0.5
 245   14:00   67.4    22    5.0     8     12.4   705.5    0.00     725    999.0    -0.5
 245   14:10   67.5    22    4.4   135     10.9   705.3    0.00     703    999.0    -0.5
 245   14:20   68.0    21    3.5   346      8.8   705.3    0.00     680    999.0    -0.5
 245   14:30   68.2    21    4.8    31     10.5   705.3    0.00     656    999.0    -0.7
 245   14:40   68.3    21    3.2   345      8.2   705.5    0.00     630    999.0    -0.5
 245   14:50   68.2    20    4.6    16      9.4   705.3    0.00     603    999.0    -0.6
 245   15:00   68.0    21    4.1     4     10.9   705.3    0.00     576    999.0    -0.6
 245   15:10   67.6    20    5.7    14     14.2   705.3    0.00     546    999.0    -0.6
 245   15:20   67.5    21    4.6     1      9.9   705.3    0.00     516    999.0    -0.6
 245   15:30   67.8    20    4.8   359     10.2   705.3    0.00     486    999.0    -0.6
 245   15:40   67.8    20    4.1    33     12.9   705.3    0.00     454    999.0    -0.6
 245   15:50   68.4    20    3.8    67      8.7   705.3    0.00     421    999.0    -0.7
 245   16:00   67.7    20    3.7    23      8.6   705.4    0.00     389    999.0    -0.7
 245   16:10   67.0    20    4.2   350      9.7   705.3    0.00     357    999.0    -0.7
 245   16:20   67.2    20    3.4    22      7.5   705.3    0.00     323    999.0    -0.7
 245   16:30   66.6    21    4.6   346      9.2   705.3    0.00     290    999.0    -0.6
 245   16:40   66.2    21    4.7    13      8.6   705.3    0.00     255    999.0    -0.7
 245   16:50   65.6    22    4.9     4      9.3   705.3    0.00     223    999.0    -0.7
 245   17:00   64.7    23    4.6   359      8.8   705.2    0.00     191    999.0    -0.6
 245   17:10   65.6    22    1.8   133      5.6   705.2    0.00     142    999.0    -0.7
 245   17:20   63.8    24    3.4   136      6.9   705.2    0.00      20    999.0    -0.6
 245   17:30   62.3    26    1.7   138      4.7   705.3    0.00      17    999.0    -0.5
 245   17:40   61.5    26    2.3   144      6.3   705.3    0.00      14    999.0    -0.5
 245   17:50   60.8    26    2.5   143      5.8   705.2    0.00      11    999.0    -0.5
 245   18:00   59.7    28    1.2   167      2.7   705.2    0.00       7    999.0    -0.6
 245   18:10   58.3    30    0.6   168      2.7   705.3    0.00       4    999.0    -0.7
 245   18:20   56.5    31    0.3   143      2.0   705.3    0.00       2    999.0    -0.8
 245   18:30   54.5    33    0.8   204      2.0   705.4    0.00       0    999.0    -0.7
 245   18:40   52.4    36    0.0     0      0.0   705.3    0.00       0    999.0    -0.6
 245   18:50   51.7    36    0.6   188      2.0   705.4    0.00       0    999.0    -0.7
 245   19:00   50.9    36    0.1   188      0.7   705.4    0.00       0    999.0    -0.7
 245   19:10   49.9    37    0.0     0      0.0   705.6    0.00       0    999.0    -0.6
 245   19:20   49.1    38    0.5   136      2.3   705.6    0.00       0    999.0    -0.6
 245   19:30   48.9    38    0.1   136      1.0   705.6    0.00       0    999.0    -0.7
 245   19:40   47.8    39    0.1   171      0.7   705.6    0.00       0    999.0    -0.5
 245   19:50   47.7    39    0.4   139      1.8   705.6    0.00       0    999.0    -0.5
 245   20:00   47.4    39    0.8   133      2.5   705.7    0.00       0    999.0    -0.5
 245   20:10   47.2    39    1.3   132      2.8   705.7    0.00       0    999.0    -0.6
 245   20:20   46.7    39    1.1   131      3.0   705.7    0.00       0    999.0    -0.5
 245   20:30   46.5    40    0.7   127      3.5   705.7    0.00       0    999.0    -0.6
 245   20:40   46.3    40    0.7   141      2.0   705.7    0.00       0    999.0    -0.5
 245   20:50   46.5    40    0.3   134      1.7   705.7    0.00       0    999.0    -0.5
 245   21:00   46.4    40    0.6   133      2.2   705.6    0.00       0    999.0    -0.5
 245   21:10   45.8    40    0.4   130      2.1   705.6    0.00       0    999.0    -0.5
 245   21:20   46.0    40    0.4   129      1.8   705.7    0.00       0    999.0    -0.5
 245   21:30   45.5    41    0.1   132      1.4   705.6    0.00       0    999.0    -0.4
 245   21:40   45.4    41    1.0   131      2.9   705.5    0.00       0    999.0    -0.4
 245   21:50   45.1    41    0.2   110      1.1   705.5    0.00       0    999.0    -0.4
 245   22:00   45.0    41    0.9   118      2.6   705.6    0.00       0    999.0    -0.5
 245   22:10   44.6    42    0.4   120      1.9   705.6    0.00       0    999.0    -0.5
 245   22:20   44.2    42    0.2   121      1.5   705.6    0.00       0    999.0    -0.5
 245   22:30   43.9    43    0.1   129      1.0   705.4    0.00       0    999.0    -0.4
 245   22:40   44.3    43    0.4   168      1.4   705.4    0.00       0    999.0    -0.5
 245   22:50   43.6    44    0.2   205      0.9   705.6    0.00       0    999.0    -0.5
 245   23:00   43.7    44    0.1   184      0.7   705.4    0.00       0    999.0    -0.4
 245   23:10   43.6    44    0.3   174      1.7   705.5    0.00       0    999.0    -0.5
 245   23:20   43.2    44    0.1   140      1.5   705.4    0.00       0    999.0    -0.5
 245   23:30   43.6    44    0.7   141      2.0   705.3    0.00       0    999.0    -0.4
 245   23:40   42.7    45    0.1   142      1.0   705.3    0.00       0    999.0    -0.3
 245   23:50   43.0    44    0.7   132      2.6   705.3    0.00       0    999.0    -0.5

Return to Crooked Creek Research Lab graphs page.


Western Regional Climate Center,wrcc@dri.edu